Карточка аэропорта URML

Внимание!
Информация на этой странице в стадии наполнения.
Если вы не увидели какой-то информации, или заметили неточность - пожалуйста сообщите нам!
Спасибо!
Команда RU-STAFF
Название аэропортаУйташ
Название аэропорта (англ.)Uytash
Превышение15 ft. (4.6 m.)
Координаты42°49.002', 47°39.198'
Высота перехода3000m
Эшелон переходаFL110
Коды ответчика1040-1047
Зона ОрВДРостов-на-Дону РПИ (URRV)
Данные METARURML 241400Z 33010MPS 9999 -SHRA BKN///CB 15/13 Q1012 R32/290460 TEMPO 2000 SHRA SCT007 BKN020CB RMK QFE759/1012
Проноз погоды (TAF)NODATA
NOTAMshow/hide NOTAM
AWOS   TABLE

Информация о ВПП

ВПП Длина ВПП (м.) Покрытие Курс ВПП Частота ILS
142640Цементобетон142108.3
322640Цементобетон322109.9

Диспетчерские позиции

Позывной Наименование органа УВД Частота
URML_APPМахачкала-Подход119.7
URML_TWRМахачкала-Старт/Посадка121.3



Спутниковое изображение